Main page
METAR-TAF:

METAR-TAF

Airports :

Bay City Municipal Airport

Bay City, Texas, United States

latitude: 28-58-23N, longitude: 095-51-48W, elevation: 46 ft

Current weather observation

The report was made 11 minutes ago, at 22:55 UTC
Wind 15 mph from the South with gusts up to 20 mph
Temperature 77°F
Humidity 83%
Pressure 29.85 in. Hg
Visibility: 10 miles
Broken clouds at a height of 1100 ft
Broken clouds at a height of 1700 ft
Broken clouds at a height of 2800 ft

METAR: KBYY 172255Z AUTO 19013G17KT 10SM BKN011 BKN017 BKN028 25/22 A2985 RMK AO2 T02510221

Time: 17:06 (23:06 UTC)


TAF: missing

Weather observations and forecasts of more than 4000 airports (METAR and TAF reports).

The available stations are represented by yellow and red dots on the map.

Hover mouse over dot to see the name of the station.

Then click to see weather observations and forecasts.

To change the map : click on the green buttons with a black cross to zoom in, on the green button with a dash to zoom out, or on the green arrows for adjacent maps.


METAR-TAF: